createdAt,value
2023-03-11T00:00:48.775Z,3.84
2023-03-11T00:03:18.886Z,3.95
2023-03-11T00:05:49.020Z,3.89
2023-03-11T00:08:22.929Z,3.94
2023-03-11T00:10:58.804Z,3.77
2023-03-11T00:13:27.745Z,3.67
2023-03-11T00:15:59.566Z,3.68
2023-03-11T00:18:32.459Z,3.55
2023-03-11T00:21:01.147Z,3.79
2023-03-11T00:23:30.653Z,3.71
2023-03-11T00:26:03.016Z,3.68
2023-03-11T00:28:31.171Z,3.47
2023-03-11T00:30:59.264Z,3.76
2023-03-11T00:33:26.179Z,3.83
2023-03-11T00:35:53.360Z,3.91
2023-03-11T00:38:21.401Z,3.95
2023-03-11T00:40:53.981Z,3.82
2023-03-11T00:43:23.138Z,3.94
2023-03-11T00:45:50.036Z,3.81
2023-03-11T00:48:17.038Z,3.90
2023-03-11T00:50:46.591Z,3.76
2023-03-11T00:53:16.088Z,4.02
2023-03-11T00:55:43.070Z,3.85
2023-03-11T00:58:11.638Z,3.81
2023-03-11T01:00:41.372Z,4.13
2023-03-11T01:03:13.136Z,4.06
2023-03-11T01:05:40.603Z,3.98
2023-03-11T01:08:10.054Z,3.96
2023-03-11T01:10:39.415Z,4.13
2023-03-11T01:13:06.395Z,3.73
2023-03-11T01:15:39.177Z,3.89
2023-03-11T01:18:07.047Z,3.70
2023-03-11T01:20:39.063Z,3.51
2023-03-11T01:23:09.244Z,3.60
2023-03-11T01:25:36.793Z,3.58
2023-03-11T01:28:05.536Z,3.82
2023-03-11T01:30:32.641Z,3.85
2023-03-11T01:33:01.049Z,3.90
2023-03-11T01:35:32.625Z,3.70
2023-03-11T01:38:02.228Z,3.73
2023-03-11T01:40:40.977Z,3.65
2023-03-11T01:43:43.057Z,3.65
2023-03-11T01:46:54.331Z,3.73
2023-03-11T01:49:22.525Z,3.90
2023-03-11T01:52:08.734Z,3.90
2023-03-11T01:54:40.682Z,3.89
2023-03-11T01:57:15.621Z,3.95
2023-03-11T01:59:52.393Z,4.07
2023-03-11T02:02:25.486Z,4.12
2023-03-11T02:04:56.936Z,3.94
2023-03-11T02:07:26.071Z,3.99
2023-03-11T02:09:53.076Z,4.12
2023-03-11T02:12:28.336Z,3.99
2023-03-11T02:14:55.457Z,3.99
2023-03-11T02:17:25.022Z,4.00
2023-03-11T02:20:28.824Z,3.88
2023-03-11T02:22:57.495Z,3.97
2023-03-11T02:25:54.550Z,3.94
2023-03-11T02:28:22.809Z,3.56
2023-03-11T02:30:51.128Z,3.80
2023-03-11T02:33:22.072Z,3.85
2023-03-11T02:35:51.725Z,4.19
2023-03-11T02:38:21.611Z,4.09
2023-03-11T02:40:56.715Z,3.89
2023-03-11T02:43:33.885Z,4.12
2023-03-11T02:46:04.355Z,4.21
2023-03-11T02:48:31.598Z,4.07
2023-03-11T02:51:01.363Z,4.12
2023-03-11T02:53:36.792Z,4.07
2023-03-11T02:56:04.113Z,3.97
2023-03-11T02:58:35.804Z,4.06
2023-03-11T03:01:05.583Z,3.88
2023-03-11T03:03:32.508Z,3.73
2023-03-11T03:06:04.649Z,3.71
2023-03-11T03:08:31.739Z,3.77
2023-03-11T03:10:59.912Z,3.88
2023-03-11T03:13:32.211Z,4.09
2023-03-11T03:16:00.389Z,4.05
2023-03-11T03:18:27.438Z,4.12
2023-03-11T03:20:54.828Z,3.96
2023-03-11T03:23:24.286Z,3.96
2023-03-11T03:25:53.938Z,3.95
2023-03-11T03:28:20.837Z,4.21
2023-03-11T03:30:50.338Z,4.34
2023-03-11T03:33:17.291Z,4.33
2023-03-11T03:35:45.592Z,4.19
2023-03-11T03:38:17.166Z,4.21
2023-03-11T03:40:52.298Z,4.36
2023-03-11T03:43:22.457Z,4.48
2023-03-11T03:46:01.638Z,4.65
2023-03-11T03:48:33.582Z,4.54
2023-03-11T03:51:11.550Z,4.10
2023-03-11T03:53:38.789Z,4.20
2023-03-11T03:56:12.322Z,4.26
2023-03-11T03:58:39.275Z,4.34
2023-03-11T04:01:09.654Z,4.39
2023-03-11T04:03:39.615Z,4.19
2023-03-11T04:06:14.261Z,4.11
2023-03-11T04:08:43.829Z,3.92
2023-03-11T04:11:11.008Z,4.12
2023-03-11T04:13:40.466Z,4.16
2023-03-11T04:16:08.169Z,4.31
2023-03-11T04:18:35.315Z,4.34
2023-03-11T04:21:06.815Z,3.88
2023-03-11T04:23:34.392Z,3.75
2023-03-11T04:26:04.731Z,3.88
2023-03-11T04:28:31.853Z,3.93
2023-03-11T04:31:01.550Z,4.05
2023-03-11T04:33:28.624Z,3.97
2023-03-11T04:35:58.066Z,3.87
2023-03-11T04:38:27.552Z,4.12
2023-03-11T04:40:54.585Z,4.00
2023-03-11T04:43:23.756Z,4.02
2023-03-11T04:45:53.151Z,3.92
2023-03-11T04:48:20.137Z,3.92
2023-03-11T04:50:49.331Z,3.98
2023-03-11T04:53:18.762Z,3.96
2023-03-11T04:55:48.689Z,4.01
2023-03-11T04:58:15.606Z,3.88
2023-03-11T05:00:42.534Z,3.92
2023-03-11T05:03:11.866Z,4.12
2023-03-11T05:05:39.012Z,4.22
2023-03-11T05:08:06.282Z,4.34
2023-03-11T05:10:35.547Z,4.43
2023-03-11T05:13:04.986Z,4.42
2023-03-11T05:15:37.521Z,4.15
2023-03-11T05:18:05.329Z,4.12
2023-03-11T05:20:32.369Z,4.23
2023-03-11T05:23:01.889Z,4.08
2023-03-11T05:25:28.898Z,4.12
2023-03-11T05:27:55.855Z,4.08
2023-03-11T05:30:22.915Z,4.21
2023-03-11T05:32:50.277Z,4.09
2023-03-11T05:35:20.704Z,4.01
2023-03-11T05:37:53.571Z,3.84
2023-03-11T05:40:23.281Z,3.79
2023-03-11T05:42:50.284Z,3.80
2023-03-11T05:45:17.271Z,3.89
2023-03-11T05:47:44.178Z,4.04
2023-03-11T05:50:12.806Z,4.13
2023-03-11T05:52:42.299Z,4.14
2023-03-11T05:55:12.439Z,4.30
2023-03-11T05:57:40.293Z,4.30
2023-03-11T06:00:14.398Z,3.94
2023-03-11T06:02:41.908Z,3.97
2023-03-11T06:05:11.067Z,4.03
2023-03-11T06:07:39.899Z,3.92
2023-03-11T06:10:12.650Z,3.83
2023-03-11T06:12:44.205Z,3.72
2023-03-11T06:15:13.224Z,3.61
2023-03-11T06:17:40.092Z,3.49
2023-03-11T06:20:08.004Z,3.59
2023-03-11T06:22:39.970Z,3.75
2023-03-11T06:25:08.038Z,3.69
2023-03-11T06:27:35.210Z,3.75
2023-03-11T06:30:02.182Z,3.77
2023-03-11T06:32:29.719Z,3.50
2023-03-11T06:34:59.202Z,3.63
2023-03-11T06:37:26.218Z,3.69
2023-03-11T06:39:58.317Z,3.94
2023-03-11T06:42:25.473Z,3.94
2023-03-11T06:44:54.581Z,4.04
2023-03-11T06:47:21.535Z,3.76
2023-03-11T06:49:50.506Z,3.98
2023-03-11T06:52:20.536Z,4.15
2023-03-11T06:54:47.425Z,4.24
2023-03-11T06:57:14.427Z,4.50
2023-03-11T06:59:41.345Z,4.70
2023-03-11T07:02:14.571Z,5.47
2023-03-11T07:04:41.486Z,7.00
2023-03-11T07:07:08.398Z,8.33
2023-03-11T07:09:35.325Z,9.71
2023-03-11T07:12:07.931Z,10.27
2023-03-11T07:14:34.900Z,10.88
2023-03-11T07:17:02.512Z,11.74
2023-03-11T07:19:29.467Z,12.55
2023-03-11T07:21:59.300Z,12.96
2023-03-11T07:24:26.186Z,13.43
2023-03-11T07:26:55.307Z,14.31
2023-03-11T07:29:25.284Z,14.96
2023-03-11T07:31:54.587Z,15.22
2023-03-11T07:34:21.564Z,15.46
2023-03-11T07:36:48.403Z,15.44
2023-03-11T07:39:20.768Z,15.73
2023-03-11T07:41:47.722Z,15.66
2023-03-11T07:44:18.249Z,15.65
2023-03-11T07:46:50.226Z,16.40
2023-03-11T07:49:17.096Z,15.66
2023-03-11T07:51:46.525Z,14.92
2023-03-11T07:54:13.877Z,13.40
2023-03-11T07:56:45.676Z,13.25
2023-03-11T07:59:12.613Z,13.20
2023-03-11T08:01:41.331Z,12.97
2023-03-11T08:04:14.190Z,12.85
2023-03-11T08:06:46.336Z,12.84
2023-03-11T08:09:13.568Z,13.98
2023-03-11T08:11:40.728Z,14.53
2023-03-11T08:14:10.464Z,14.94
2023-03-11T08:16:43.856Z,13.54
2023-03-11T08:19:14.703Z,13.03
2023-03-11T08:21:41.685Z,12.17
2023-03-11T08:24:16.662Z,12.43
2023-03-11T08:26:46.501Z,13.75
2023-03-11T08:29:13.458Z,13.86
2023-03-11T08:31:40.464Z,15.76
2023-03-11T08:34:12.437Z,17.33
2023-03-11T08:36:39.515Z,18.50
2023-03-11T08:39:06.958Z,18.53
2023-03-11T08:41:34.120Z,20.14
2023-03-11T08:44:04.080Z,20.15
2023-03-11T08:46:35.787Z,22.13
2023-03-11T08:49:04.299Z,22.34
2023-03-11T08:51:34.242Z,21.95
2023-03-11T08:54:07.793Z,21.82
2023-03-11T08:56:34.665Z,22.31
2023-03-11T08:59:02.038Z,22.86
2023-03-11T09:01:30.192Z,24.21
2023-03-11T09:03:57.586Z,24.55
2023-03-11T09:06:30.410Z,24.60
2023-03-11T09:09:07.361Z,23.77
2023-03-11T09:11:38.762Z,24.21
2023-03-11T09:14:05.854Z,24.00
2023-03-11T09:16:33.667Z,23.98
2023-03-11T09:19:06.950Z,24.05
2023-03-11T09:21:38.066Z,24.86
2023-03-11T09:24:08.632Z,25.88
2023-03-11T09:26:39.065Z,25.92
2023-03-11T09:29:08.358Z,24.58
2023-03-11T09:31:38.709Z,25.75
2023-03-11T09:34:06.482Z,25.90
2023-03-11T09:36:33.545Z,25.17
2023-03-11T09:39:03.880Z,26.76
2023-03-11T09:41:58.412Z,27.83
2023-03-11T09:44:35.874Z,27.19
2023-03-11T09:47:38.397Z,27.37
2023-03-11T09:50:21.416Z,26.71
2023-03-11T09:53:10.215Z,26.34
2023-03-11T09:56:02.783Z,27.19
2023-03-11T09:58:34.704Z,26.98
2023-03-11T10:01:27.615Z,26.64
2023-03-11T10:04:27.081Z,26.99
2023-03-11T10:06:56.950Z,27.16
2023-03-11T10:09:58.894Z,28.08
2023-03-11T10:13:07.218Z,27.83
2023-03-11T10:15:59.878Z,28.45
2023-03-11T10:18:52.873Z,28.62
2023-03-11T10:22:23.959Z,28.91
2023-03-11T10:25:07.591Z,29.02
2023-03-11T10:28:00.243Z,27.62
2023-03-11T10:30:36.591Z,29.55
2023-03-11T10:33:21.919Z,29.68
2023-03-11T10:35:57.909Z,28.97
2023-03-11T10:38:32.393Z,27.80
2023-03-11T10:41:10.037Z,28.57
2023-03-11T10:44:04.451Z,29.52
2023-03-11T10:46:31.668Z,29.00
2023-03-11T10:48:58.680Z,27.52
2023-03-11T10:51:34.232Z,27.98
2023-03-11T10:54:03.567Z,27.96
2023-03-11T10:56:42.887Z,28.41
2023-03-11T10:59:48.379Z,28.33
2023-03-11T11:02:34.288Z,28.62
2023-03-11T11:05:22.175Z,28.54
2023-03-11T11:08:16.078Z,29.17
2023-03-11T11:11:01.906Z,30.47
2023-03-11T11:13:32.500Z,28.29
2023-03-11T11:16:18.928Z,29.61
2023-03-11T11:18:50.025Z,28.59
2023-03-11T11:21:35.219Z,29.37
2023-03-11T11:24:18.952Z,28.88
2023-03-11T11:27:21.435Z,28.56
2023-03-11T11:30:15.444Z,29.14
2023-03-11T11:32:42.961Z,28.92
2023-03-11T11:35:22.574Z,28.11
2023-03-11T11:37:54.857Z,27.81
2023-03-11T11:40:36.863Z,28.28
2023-03-11T11:43:18.761Z,30.44
2023-03-11T11:46:10.998Z,29.41
2023-03-11T11:49:02.631Z,30.00
2023-03-11T11:51:42.020Z,29.23
2023-03-11T11:54:30.729Z,28.68
2023-03-11T11:57:02.170Z,29.21
2023-03-11T11:59:30.838Z,27.61
2023-03-11T12:02:25.197Z,27.34
2023-03-11T12:05:21.400Z,28.51
2023-03-11T12:08:09.062Z,29.07
2023-03-11T12:10:59.188Z,28.96
2023-03-11T12:13:34.980Z,29.74
2023-03-11T12:16:39.957Z,29.99
2023-03-11T12:19:14.059Z,28.06
2023-03-11T12:22:36.954Z,27.55
2023-03-11T12:25:37.095Z,26.83
2023-03-11T12:28:16.087Z,26.77
2023-03-11T12:30:55.131Z,24.90
2023-03-11T12:33:53.891Z,24.85
2023-03-11T12:36:43.963Z,25.90
2023-03-11T12:39:25.159Z,25.95
2023-03-11T12:42:10.905Z,26.35
2023-03-11T12:44:39.496Z,28.34
2023-03-11T12:47:12.152Z,28.59
2023-03-11T12:49:40.783Z,28.72
2023-03-11T12:52:13.476Z,29.43
2023-03-11T12:54:40.554Z,27.14
2023-03-11T12:57:37.302Z,26.01
2023-03-11T13:00:46.406Z,25.86
2023-03-11T13:03:34.584Z,25.55
2023-03-11T13:06:27.971Z,25.41
2023-03-11T13:08:57.585Z,25.84
2023-03-11T13:11:35.853Z,26.33
2023-03-11T13:14:13.096Z,24.97
2023-03-11T13:16:40.932Z,24.45
2023-03-11T13:19:26.571Z,23.50
2023-03-11T13:21:55.076Z,24.00
2023-03-11T13:24:30.141Z,24.71
2023-03-11T13:26:56.977Z,26.08
2023-03-11T13:29:29.593Z,24.97
2023-03-11T13:32:17.577Z,23.94
2023-03-11T13:34:56.005Z,23.28
2023-03-11T13:38:14.932Z,22.67
2023-03-11T13:40:47.085Z,23.97
2023-03-11T13:43:21.201Z,23.10
2023-03-11T13:46:04.495Z,23.09
2023-03-11T13:48:42.127Z,22.55
2023-03-11T13:51:20.549Z,22.93
2023-03-11T13:54:17.764Z,21.36
2023-03-11T13:56:51.085Z,19.82
2023-03-11T13:59:24.741Z,19.47
2023-03-11T14:01:59.866Z,20.02
2023-03-11T14:04:33.756Z,20.94
2023-03-11T14:07:00.868Z,22.02
2023-03-11T14:09:28.931Z,21.69
2023-03-11T14:12:05.434Z,21.87
2023-03-11T14:14:55.247Z,22.70
2023-03-11T14:17:22.296Z,22.53
2023-03-11T14:20:18.278Z,21.65
2023-03-11T14:22:52.231Z,21.53
2023-03-11T14:25:36.924Z,21.77
2023-03-11T14:28:23.114Z,21.97
2023-03-11T14:31:04.359Z,21.01
2023-03-11T14:33:39.700Z,20.37
2023-03-11T14:36:16.904Z,18.78
2023-03-11T14:38:47.145Z,19.11
2023-03-11T14:41:17.472Z,17.91
2023-03-11T14:43:51.272Z,16.36
2023-03-11T14:46:28.473Z,14.51
2023-03-11T14:48:57.541Z,14.52
2023-03-11T14:51:33.320Z,14.95
2023-03-11T14:54:24.563Z,16.60
2023-03-11T14:57:17.364Z,17.35
2023-03-11T14:59:48.702Z,16.55
2023-03-11T15:02:23.676Z,17.38
2023-03-11T15:04:54.555Z,17.67
2023-03-11T15:07:24.570Z,17.53
2023-03-11T15:09:51.659Z,17.74
2023-03-11T15:12:35.362Z,17.05
2023-03-11T15:15:03.066Z,16.82
2023-03-11T15:17:41.280Z,16.86
2023-03-11T15:20:35.513Z,17.00
2023-03-11T15:23:06.680Z,16.25
2023-03-11T15:25:38.712Z,16.03
2023-03-11T15:28:28.994Z,15.14
2023-03-11T15:31:35.274Z,14.78
2023-03-11T15:34:22.275Z,15.71
2023-03-11T15:36:50.334Z,15.77
2023-03-11T15:39:29.057Z,14.82
2023-03-11T15:42:07.930Z,13.63
2023-03-11T15:44:40.788Z,12.43
2023-03-11T15:47:22.679Z,11.54
2023-03-11T15:49:50.791Z,11.15
2023-03-11T15:52:19.362Z,10.49
2023-03-11T15:54:55.004Z,10.10
2023-03-11T15:57:29.726Z,10.20
2023-03-11T15:59:59.270Z,9.82
2023-03-11T16:02:31.460Z,9.74
2023-03-11T16:05:00.563Z,9.69
2023-03-11T16:07:39.125Z,9.38
2023-03-11T16:10:09.350Z,8.91
2023-03-11T16:12:36.278Z,9.23
2023-03-11T16:15:04.262Z,9.13
2023-03-11T16:17:46.856Z,8.79
2023-03-11T16:20:16.698Z,8.48
2023-03-11T16:22:43.713Z,8.64
2023-03-11T16:25:21.665Z,8.19
2023-03-11T16:27:51.235Z,8.13
2023-03-11T16:30:21.940Z,7.84
2023-03-11T16:32:49.288Z,7.61
2023-03-11T16:35:16.593Z,7.96
2023-03-11T16:37:43.675Z,7.81
2023-03-11T16:40:15.978Z,7.70
2023-03-11T16:42:43.778Z,7.68
2023-03-11T16:45:20.352Z,7.64
2023-03-11T16:47:47.376Z,7.99
2023-03-11T16:50:14.910Z,7.95
2023-03-11T16:52:42.198Z,8.08
2023-03-11T16:55:09.950Z,7.93
2023-03-11T16:57:39.719Z,7.65
2023-03-11T17:00:09.939Z,7.75
2023-03-11T17:02:39.710Z,7.72
2023-03-11T17:05:11.047Z,7.84
2023-03-11T17:07:39.672Z,8.13
2023-03-11T17:10:12.000Z,7.97
2023-03-11T17:12:38.944Z,7.95
2023-03-11T17:15:09.492Z,7.98
2023-03-11T17:17:36.529Z,7.93
2023-03-11T17:20:07.842Z,7.97
2023-03-11T17:22:34.965Z,7.68
2023-03-11T17:25:05.256Z,7.87
2023-03-11T17:27:32.685Z,7.67
2023-03-11T17:30:01.804Z,7.62
2023-03-11T17:32:29.778Z,7.64
2023-03-11T17:34:56.774Z,7.54
2023-03-11T17:37:23.988Z,7.63
2023-03-11T17:39:51.012Z,7.77
2023-03-11T17:42:18.086Z,7.67
2023-03-11T17:44:51.692Z,7.68
2023-03-11T17:47:20.291Z,7.52
2023-03-11T17:49:50.553Z,7.08
2023-03-11T17:52:17.876Z,6.68
2023-03-11T17:54:45.824Z,6.68
2023-03-11T17:57:12.895Z,6.48
2023-03-11T17:59:39.964Z,6.43
2023-03-11T18:02:08.372Z,6.35
2023-03-11T18:04:39.120Z,6.51
2023-03-11T18:07:09.113Z,6.43
2023-03-11T18:09:38.564Z,6.18
2023-03-11T18:12:06.794Z,5.87
2023-03-11T18:14:36.000Z,5.83
2023-03-11T18:17:05.592Z,5.62
2023-03-11T18:19:35.826Z,5.57
2023-03-11T18:22:05.009Z,5.84
2023-03-11T18:24:31.945Z,5.61
2023-03-11T18:26:59.118Z,5.52
2023-03-11T18:29:26.064Z,5.84
2023-03-11T18:31:53.269Z,5.67
2023-03-11T18:34:23.285Z,5.41
2023-03-11T18:36:50.303Z,5.62
2023-03-11T18:39:21.802Z,5.69
2023-03-11T18:41:48.806Z,5.59
2023-03-11T18:44:16.364Z,5.49
2023-03-11T18:46:43.499Z,5.42
2023-03-11T18:49:13.598Z,5.23
2023-03-11T18:51:45.780Z,5.15
2023-03-11T18:54:14.958Z,5.08
2023-03-11T18:56:45.079Z,5.18
2023-03-11T18:59:13.252Z,5.24
2023-03-11T19:01:40.212Z,5.12
2023-03-11T19:04:09.833Z,5.11
2023-03-11T19:06:40.017Z,5.15
2023-03-11T19:09:11.009Z,5.05
2023-03-11T19:11:38.139Z,5.11
2023-03-11T19:14:05.131Z,5.16
2023-03-11T19:16:32.242Z,5.15
2023-03-11T19:19:03.908Z,5.16
2023-03-11T19:21:32.990Z,5.13
2023-03-11T19:24:00.313Z,5.08
2023-03-11T19:26:43.122Z,5.16
2023-03-11T19:29:14.347Z,5.18
2023-03-11T19:31:46.282Z,4.84
2023-03-11T19:34:13.313Z,4.86
2023-03-11T19:36:40.667Z,4.98
2023-03-11T19:39:08.050Z,5.07
2023-03-11T19:41:35.100Z,5.09
2023-03-11T19:44:04.263Z,5.13
2023-03-11T19:46:35.990Z,5.03
2023-03-11T19:49:05.457Z,4.97
2023-03-11T19:51:48.461Z,4.77
2023-03-11T19:54:17.157Z,4.79
2023-03-11T19:56:44.146Z,4.63
2023-03-11T19:59:11.369Z,4.68
2023-03-11T20:01:38.418Z,4.67
2023-03-11T20:04:06.128Z,4.51
2023-03-11T20:06:33.167Z,4.61
2023-03-11T20:09:00.189Z,4.81
2023-03-11T20:11:27.179Z,4.66
2023-03-11T20:13:54.165Z,4.66
2023-03-11T20:16:21.231Z,4.70
2023-03-11T20:18:51.738Z,4.67
2023-03-11T20:21:19.366Z,4.53
2023-03-11T20:23:48.993Z,4.59
2023-03-11T20:26:20.840Z,4.64
2023-03-11T20:28:48.040Z,4.57
2023-03-11T20:31:23.590Z,4.70
2023-03-11T20:33:51.869Z,4.66
2023-03-11T20:36:27.412Z,4.56
2023-03-11T20:38:55.749Z,4.28
2023-03-11T20:41:24.443Z,4.43
2023-03-11T20:43:56.238Z,4.48
2023-03-11T20:46:26.042Z,4.63
2023-03-11T20:48:53.371Z,4.46
2023-03-11T20:51:23.218Z,4.41
2023-03-11T20:53:52.713Z,4.31
2023-03-11T20:56:24.706Z,4.26
2023-03-11T20:58:56.143Z,4.32
2023-03-11T21:01:26.111Z,4.34
2023-03-11T21:03:58.413Z,4.49
2023-03-11T21:06:37.920Z,4.41
2023-03-11T21:09:12.330Z,4.54
2023-03-11T21:11:39.751Z,4.68
2023-03-11T21:14:07.972Z,4.79
2023-03-11T21:16:37.069Z,4.62
2023-03-11T21:19:08.789Z,4.84
2023-03-11T21:21:38.859Z,4.77
2023-03-11T21:24:06.344Z,4.86
2023-03-11T21:26:34.672Z,4.84
2023-03-11T21:29:01.891Z,5.16
2023-03-11T21:31:29.947Z,4.75
2023-03-11T21:34:01.512Z,4.80
2023-03-11T21:36:29.494Z,4.85
2023-03-11T21:38:56.514Z,4.86
2023-03-11T21:41:26.652Z,4.89
2023-03-11T21:43:58.747Z,4.99
2023-03-11T21:46:31.064Z,5.11
2023-03-11T21:48:59.968Z,5.09
2023-03-11T21:51:27.464Z,5.16
2023-03-11T21:53:54.866Z,4.99
2023-03-11T21:56:22.289Z,5.28
2023-03-11T21:58:51.441Z,5.19
2023-03-11T22:01:21.137Z,4.86
2023-03-11T22:03:50.874Z,4.95
2023-03-11T22:06:18.533Z,5.07
2023-03-11T22:08:45.605Z,4.93
2023-03-11T22:11:17.678Z,5.07
2023-03-11T22:13:51.334Z,5.13
2023-03-11T22:16:20.023Z,5.07
2023-03-11T22:18:47.769Z,5.10
2023-03-11T22:21:16.482Z,5.24
2023-03-11T22:23:45.048Z,5.26
2023-03-11T22:26:12.159Z,5.31
2023-03-11T22:28:41.648Z,5.45
2023-03-11T22:31:12.258Z,5.49
2023-03-11T22:33:39.311Z,5.43
2023-03-11T22:36:09.243Z,5.36
2023-03-11T22:38:37.079Z,5.29
2023-03-11T22:41:07.673Z,5.24
2023-03-11T22:43:36.365Z,5.28
2023-03-11T22:46:04.998Z,5.08
2023-03-11T22:48:33.793Z,5.19
2023-03-11T22:51:00.905Z,5.16
2023-03-11T22:53:27.878Z,5.31
2023-03-11T22:55:57.175Z,5.57
2023-03-11T22:58:24.080Z,5.61
2023-03-11T23:00:51.081Z,5.51
2023-03-11T23:03:22.739Z,5.23
2023-03-11T23:05:49.838Z,5.14
2023-03-11T23:08:19.373Z,5.12
2023-03-11T23:10:47.724Z,5.08
2023-03-11T23:13:17.923Z,5.11
2023-03-11T23:15:47.223Z,5.13
2023-03-11T23:18:15.918Z,4.98
2023-03-11T23:20:44.947Z,4.81
2023-03-11T23:23:13.217Z,4.98
2023-03-11T23:25:41.535Z,4.91
2023-03-11T23:28:11.121Z,4.77
2023-03-11T23:30:40.571Z,4.70
2023-03-11T23:33:07.562Z,4.60
2023-03-11T23:35:34.695Z,4.65
2023-03-11T23:38:01.745Z,4.60
2023-03-11T23:40:28.698Z,4.73
2023-03-11T23:43:00.157Z,4.85
2023-03-11T23:45:29.656Z,4.82
2023-03-11T23:47:56.549Z,5.09
2023-03-11T23:50:23.624Z,5.15
2023-03-11T23:52:50.605Z,5.31
2023-03-11T23:55:17.662Z,5.13
2023-03-11T23:57:44.856Z,5.29
